createdAt,value
2016-08-13T00:00:01.769Z,0
2016-08-13T00:01:02.387Z,0
2016-08-13T00:02:03.262Z,0
2016-08-13T00:03:03.871Z,0
2016-08-13T00:04:04.498Z,0
2016-08-13T00:05:05.655Z,0
2016-08-13T00:06:06.267Z,0
2016-08-13T00:07:06.878Z,0
2016-08-13T00:08:07.599Z,0
2016-08-13T00:09:08.215Z,0
2016-08-13T00:10:08.838Z,0
2016-08-13T00:11:09.652Z,0
2016-08-13T00:12:10.261Z,0
2016-08-13T00:13:10.866Z,0
2016-08-13T00:14:11.484Z,0
2016-08-13T00:15:12.317Z,0
2016-08-13T00:16:12.955Z,0
2016-08-13T00:17:13.563Z,0
2016-08-13T00:18:14.195Z,0
2016-08-13T00:19:15.155Z,0
2016-08-13T00:20:15.793Z,0
2016-08-13T00:21:16.454Z,0
2016-08-13T00:22:17.149Z,0
2016-08-13T00:23:17.808Z,0
2016-08-13T00:24:18.428Z,0
2016-08-13T00:25:19.035Z,0
2016-08-13T00:26:19.643Z,0
2016-08-13T00:27:20.255Z,0
2016-08-13T00:28:20.872Z,0
2016-08-13T00:29:21.487Z,0
2016-08-13T00:30:22.112Z,0
2016-08-13T00:31:22.716Z,0
2016-08-13T00:32:23.351Z,0
2016-08-13T00:33:23.970Z,0
2016-08-13T00:34:24.601Z,0
2016-08-13T00:35:25.207Z,0
2016-08-13T00:36:25.820Z,0
2016-08-13T00:37:26.439Z,0
2016-08-13T00:38:27.046Z,0
2016-08-13T00:39:27.672Z,0
2016-08-13T00:40:28.792Z,0
2016-08-13T00:41:29.407Z,0
2016-08-13T00:42:30.029Z,0
2016-08-13T00:43:30.642Z,0
2016-08-13T00:44:31.253Z,0
2016-08-13T00:45:32.432Z,0
2016-08-13T00:46:33.051Z,0
2016-08-13T00:47:33.667Z,0
2016-08-13T00:48:34.284Z,0
2016-08-13T00:49:34.948Z,0
2016-08-13T00:50:35.573Z,0
2016-08-13T00:51:36.193Z,0
2016-08-13T00:52:36.812Z,0
2016-08-13T00:53:37.409Z,0
2016-08-13T00:54:38.030Z,0
2016-08-13T00:55:39.090Z,0
2016-08-13T00:56:39.734Z,0
2016-08-13T00:57:40.352Z,0
2016-08-13T00:58:40.962Z,0
2016-08-13T00:59:41.567Z,0
2016-08-13T01:00:42.183Z,0
2016-08-13T01:01:43.157Z,0
2016-08-13T01:02:43.782Z,0
2016-08-13T01:03:44.405Z,0
2016-08-13T01:04:45.024Z,0
2016-08-13T01:05:45.644Z,0
2016-08-13T01:06:46.270Z,0
2016-08-13T01:07:46.901Z,0
2016-08-13T01:08:47.638Z,0
2016-08-13T01:09:48.226Z,0
2016-08-13T01:10:48.866Z,0
2016-08-13T01:11:49.496Z,0
2016-08-13T01:12:50.114Z,0
2016-08-13T01:13:51.094Z,0
2016-08-13T01:14:51.722Z,0
2016-08-13T01:15:52.336Z,0
2016-08-13T01:16:53.257Z,0
2016-08-13T01:17:53.866Z,0
2016-08-13T01:18:54.492Z,0
2016-08-13T01:19:55.120Z,0
2016-08-13T01:20:56.056Z,0
2016-08-13T01:21:56.664Z,0
2016-08-13T01:22:57.293Z,0
2016-08-13T01:23:57.942Z,0
2016-08-13T01:24:58.552Z,0
2016-08-13T01:25:59.166Z,0
2016-08-13T01:27:02.685Z,0
2016-08-13T01:28:03.293Z,0
2016-08-13T01:29:03.921Z,0
2016-08-13T01:30:04.541Z,0
2016-08-13T01:31:05.662Z,0
2016-08-13T01:32:06.302Z,0
2016-08-13T01:33:06.918Z,0
2016-08-13T01:34:07.527Z,0
2016-08-13T01:35:08.150Z,0
2016-08-13T01:36:08.769Z,0
2016-08-13T01:37:09.375Z,0
2016-08-13T01:38:09.993Z,0
2016-08-13T01:39:11.277Z,0
2016-08-13T01:40:11.897Z,0
2016-08-13T01:41:12.515Z,0
2016-08-13T01:42:13.139Z,0
2016-08-13T01:43:14.000Z,0
2016-08-13T01:44:14.667Z,0
2016-08-13T01:45:15.280Z,0
2016-08-13T01:46:15.893Z,0
2016-08-13T01:47:16.513Z,0
2016-08-13T01:48:17.141Z,0
2016-08-13T01:49:17.786Z,0
2016-08-13T01:50:18.404Z,0
2016-08-13T01:51:19.013Z,0
2016-08-13T01:52:19.980Z,0
2016-08-13T01:53:20.588Z,0
2016-08-13T01:54:21.187Z,0
2016-08-13T01:55:22.005Z,0
2016-08-13T01:56:22.628Z,0
2016-08-13T01:57:23.257Z,0
2016-08-13T01:58:23.883Z,0
2016-08-13T01:59:24.494Z,0
2016-08-13T02:00:25.100Z,0
2016-08-13T02:01:25.712Z,0
2016-08-13T02:02:26.327Z,0
2016-08-13T02:03:26.937Z,0
2016-08-13T02:04:27.598Z,0
2016-08-13T02:05:28.179Z,0
2016-08-13T02:06:28.788Z,0
2016-08-13T02:07:29.400Z,0
2016-08-13T02:08:30.004Z,0
2016-08-13T02:09:30.620Z,0
2016-08-13T02:10:31.240Z,0
2016-08-13T02:11:31.861Z,0
2016-08-13T02:12:32.484Z,0
2016-08-13T02:13:33.092Z,0
2016-08-13T02:14:33.714Z,0
2016-08-13T02:15:34.322Z,0
2016-08-13T02:16:34.931Z,0
2016-08-13T02:17:35.545Z,0
2016-08-13T02:18:36.147Z,0
2016-08-13T02:19:36.752Z,0
2016-08-13T02:20:37.374Z,0
2016-08-13T02:21:38.018Z,0
2016-08-13T02:22:38.637Z,0
2016-08-13T02:23:39.265Z,0
2016-08-13T02:24:39.882Z,0
2016-08-13T02:25:40.494Z,0
2016-08-13T02:26:41.095Z,0
2016-08-13T02:27:41.659Z,0
2016-08-13T02:28:42.219Z,0
2016-08-13T02:29:42.800Z,0
2016-08-13T02:30:43.344Z,0
2016-08-13T02:31:43.908Z,0
2016-08-13T02:32:44.549Z,0
2016-08-13T02:33:45.123Z,0
2016-08-13T02:34:45.677Z,0
2016-08-13T02:35:46.247Z,0
2016-08-13T02:36:46.810Z,0
2016-08-13T02:37:47.391Z,0
2016-08-13T02:38:47.958Z,0
2016-08-13T02:39:48.532Z,0
2016-08-13T02:40:49.108Z,0
2016-08-13T02:41:49.676Z,0
2016-08-13T02:42:50.255Z,0
2016-08-13T02:43:50.811Z,0
2016-08-13T02:44:51.372Z,0
2016-08-13T02:45:51.933Z,0
2016-08-13T02:46:52.507Z,0
2016-08-13T02:47:53.062Z,0
2016-08-13T02:48:53.615Z,0
2016-08-13T02:49:54.179Z,0
2016-08-13T02:50:54.747Z,0
2016-08-13T02:51:55.318Z,0
2016-08-13T02:52:55.890Z,0
2016-08-13T02:53:56.457Z,0
2016-08-13T02:54:57.027Z,0
2016-08-13T02:55:57.587Z,0
2016-08-13T02:56:58.164Z,0
2016-08-13T02:57:58.751Z,0
2016-08-13T02:58:59.360Z,0
2016-08-13T02:59:59.931Z,0
2016-08-13T03:01:00.525Z,0
2016-08-13T03:02:01.089Z,0
2016-08-13T03:03:01.658Z,0
2016-08-13T03:04:02.220Z,0
2016-08-13T03:05:02.800Z,0
2016-08-13T03:06:03.373Z,0
2016-08-13T03:07:03.937Z,0
2016-08-13T03:08:04.504Z,0
2016-08-13T03:09:05.075Z,0
2016-08-13T03:10:05.639Z,0
2016-08-13T03:11:06.211Z,0
2016-08-13T03:12:06.809Z,0
2016-08-13T03:13:07.381Z,0
2016-08-13T03:14:07.960Z,0
2016-08-13T03:15:08.530Z,0
2016-08-13T03:16:09.121Z,0
2016-08-13T03:17:09.678Z,0
2016-08-13T03:18:10.253Z,0
2016-08-13T03:19:10.803Z,0
2016-08-13T03:20:11.370Z,0
2016-08-13T03:21:11.943Z,0
2016-08-13T03:22:12.511Z,0
2016-08-13T03:23:13.077Z,0
2016-08-13T03:24:13.692Z,0
2016-08-13T03:25:14.273Z,0
2016-08-13T03:26:14.843Z,0
2016-08-13T03:27:15.405Z,0
2016-08-13T03:28:15.972Z,0
2016-08-13T03:29:16.534Z,0
2016-08-13T03:30:17.095Z,0
2016-08-13T03:31:17.683Z,0
2016-08-13T03:32:18.257Z,0
2016-08-13T03:33:18.857Z,0
2016-08-13T03:34:19.410Z,0
2016-08-13T03:35:21.130Z,0
2016-08-13T03:36:21.686Z,0
2016-08-13T03:37:22.243Z,0
2016-08-13T03:38:22.811Z,0
2016-08-13T03:39:23.384Z,0
2016-08-13T03:40:23.951Z,0
2016-08-13T03:41:24.520Z,0
2016-08-13T03:42:25.080Z,0
2016-08-13T03:43:25.655Z,0
2016-08-13T03:44:26.231Z,0
2016-08-13T03:45:26.811Z,0
2016-08-13T03:46:27.378Z,0
2016-08-13T03:47:27.951Z,0
2016-08-13T03:48:28.512Z,0
2016-08-13T03:49:29.068Z,0
2016-08-13T03:50:29.705Z,0
2016-08-13T03:51:30.271Z,0
2016-08-13T03:52:30.860Z,0
2016-08-13T03:53:31.409Z,0
2016-08-13T03:54:31.987Z,0
2016-08-13T03:55:32.547Z,0
2016-08-13T03:56:33.113Z,5
2016-08-13T03:57:33.670Z,5
2016-08-13T03:58:34.238Z,5
2016-08-13T03:59:34.809Z,5
2016-08-13T04:00:35.356Z,5
2016-08-13T04:01:35.917Z,5
2016-08-13T04:02:36.484Z,5
2016-08-13T04:03:37.070Z,5
2016-08-13T04:04:37.626Z,5
2016-08-13T04:05:38.186Z,5
2016-08-13T04:06:38.746Z,10
2016-08-13T04:07:39.319Z,10
2016-08-13T04:08:39.894Z,10
2016-08-13T04:09:40.461Z,10
2016-08-13T04:10:41.025Z,10
2016-08-13T04:11:41.597Z,10
2016-08-13T04:12:42.160Z,10
2016-08-13T04:13:42.726Z,10
2016-08-13T04:14:43.298Z,10
2016-08-13T04:15:43.863Z,10
2016-08-13T04:16:44.444Z,15
2016-08-13T04:17:45.038Z,15
2016-08-13T04:18:45.597Z,15
2016-08-13T04:19:46.170Z,15
2016-08-13T04:20:46.736Z,15
2016-08-13T04:21:47.312Z,15
2016-08-13T04:22:47.884Z,15
2016-08-13T04:23:48.445Z,15
2016-08-13T04:24:49.013Z,20
2016-08-13T04:25:49.584Z,20
2016-08-13T04:26:50.155Z,20
2016-08-13T04:27:50.724Z,20
2016-08-13T04:28:51.292Z,20
2016-08-13T04:29:51.877Z,20
2016-08-13T04:30:52.438Z,25
2016-08-13T04:31:53.017Z,25
2016-08-13T04:32:53.588Z,25
2016-08-13T04:33:54.185Z,25
2016-08-13T04:34:54.749Z,25
2016-08-13T04:35:55.316Z,30
2016-08-13T04:36:55.875Z,30
2016-08-13T04:37:56.439Z,30
2016-08-13T04:38:57.009Z,30
2016-08-13T04:39:57.578Z,30
2016-08-13T04:40:58.137Z,35
2016-08-13T04:41:58.713Z,35
2016-08-13T04:42:59.306Z,35
2016-08-13T04:43:59.868Z,35
2016-08-13T04:45:00.436Z,35
2016-08-13T04:46:01.006Z,35
2016-08-13T04:47:01.568Z,35
2016-08-13T04:48:02.136Z,35
2016-08-13T04:49:02.706Z,35
2016-08-13T04:50:03.291Z,35
2016-08-13T04:51:03.857Z,35
2016-08-13T04:52:04.426Z,35
2016-08-13T04:53:05.003Z,35
2016-08-13T04:54:05.574Z,40
2016-08-13T04:55:06.136Z,40
2016-08-13T04:56:06.692Z,40
2016-08-13T04:57:07.265Z,40
2016-08-13T04:58:07.825Z,40
2016-08-13T04:59:08.392Z,40
2016-08-13T05:00:08.959Z,45
2016-08-13T05:01:09.520Z,45
2016-08-13T05:02:10.074Z,45
2016-08-13T05:03:10.635Z,50
2016-08-13T05:04:11.211Z,50
2016-08-13T05:05:11.765Z,60
2016-08-13T05:06:12.334Z,55
2016-08-13T05:07:12.909Z,55
2016-08-13T05:08:13.478Z,55
2016-08-13T05:09:14.046Z,55
2016-08-13T05:10:14.616Z,55
2016-08-13T05:11:15.180Z,60
2016-08-13T05:12:15.750Z,55
2016-08-13T05:13:16.315Z,60
2016-08-13T05:14:16.884Z,65
2016-08-13T05:15:17.448Z,60
2016-08-13T05:16:18.042Z,60
2016-08-13T05:17:18.618Z,65
2016-08-13T05:18:19.180Z,65
2016-08-13T05:19:19.744Z,65
2016-08-13T05:20:20.314Z,65
2016-08-13T05:21:20.886Z,65
2016-08-13T05:22:21.466Z,65
2016-08-13T05:23:22.028Z,65
2016-08-13T05:24:22.603Z,65
2016-08-13T05:25:23.176Z,75
2016-08-13T05:26:23.750Z,80
2016-08-13T05:27:24.315Z,75
2016-08-13T05:28:24.886Z,75
2016-08-13T05:29:25.452Z,80
2016-08-13T05:30:26.034Z,75
2016-08-13T05:31:26.601Z,80
2016-08-13T05:32:27.158Z,85
2016-08-13T05:33:27.730Z,75
2016-08-13T05:34:28.305Z,85
2016-08-13T05:35:28.870Z,75
2016-08-13T05:36:29.441Z,85
2016-08-13T05:37:30.019Z,90
2016-08-13T05:38:30.593Z,85
2016-08-13T05:39:31.153Z,105
2016-08-13T05:40:31.716Z,95
2016-08-13T05:41:32.279Z,95
2016-08-13T05:42:32.843Z,95
2016-08-13T05:43:33.410Z,105
2016-08-13T05:44:33.987Z,100
2016-08-13T05:45:34.587Z,90
2016-08-13T05:46:35.161Z,105
2016-08-13T05:47:35.726Z,95
2016-08-13T05:48:36.286Z,105
2016-08-13T05:49:36.851Z,110
2016-08-13T05:50:37.410Z,100
2016-08-13T05:51:37.993Z,85
2016-08-13T05:52:38.563Z,105
2016-08-13T05:53:39.127Z,105
2016-08-13T05:54:39.697Z,80
2016-08-13T05:55:40.267Z,120
2016-08-13T05:56:40.830Z,80
2016-08-13T05:57:41.397Z,110
2016-08-13T05:58:41.971Z,120
2016-08-13T05:59:42.552Z,90
2016-08-13T06:00:43.112Z,105
2016-08-13T06:01:43.674Z,100
2016-08-13T06:02:44.250Z,115
2016-08-13T06:03:44.825Z,110
2016-08-13T06:04:45.382Z,95
2016-08-13T06:05:45.947Z,120
2016-08-13T06:06:46.524Z,105
2016-08-13T06:07:47.095Z,130
2016-08-13T06:08:47.670Z,115
2016-08-13T06:09:48.254Z,125
2016-08-13T06:10:48.826Z,105
2016-08-13T06:11:49.417Z,85
2016-08-13T06:12:49.995Z,110
2016-08-13T06:13:50.575Z,95
2016-08-13T06:14:51.144Z,80
2016-08-13T06:15:51.713Z,80
2016-08-13T06:16:52.307Z,70
2016-08-13T06:17:53.163Z,110
2016-08-13T06:18:53.769Z,100
2016-08-13T06:19:54.339Z,110
2016-08-13T06:20:54.909Z,75
2016-08-13T06:21:55.485Z,100
2016-08-13T06:22:56.101Z,110
2016-08-13T06:23:56.715Z,95
2016-08-13T06:24:57.281Z,85
2016-08-13T06:25:57.848Z,120
2016-08-13T06:26:58.428Z,110
2016-08-13T06:27:59.004Z,100
2016-08-13T06:28:59.583Z,95
2016-08-13T06:30:00.151Z,95
2016-08-13T06:31:00.718Z,95
2016-08-13T06:32:01.285Z,80
2016-08-13T06:33:01.849Z,105
2016-08-13T06:34:02.434Z,75
2016-08-13T06:35:02.998Z,90
2016-08-13T06:36:03.557Z,100
2016-08-13T06:37:04.519Z,90
2016-08-13T06:38:05.085Z,95
2016-08-13T06:39:05.850Z,85
2016-08-13T06:40:06.404Z,75
2016-08-13T06:41:06.978Z,70
2016-08-13T06:42:07.551Z,90
2016-08-13T06:43:08.153Z,70
2016-08-13T06:44:08.714Z,85
2016-08-13T06:45:09.276Z,80
2016-08-13T06:46:09.840Z,65
2016-08-13T06:47:10.407Z,70
2016-08-13T06:48:10.968Z,80
2016-08-13T06:49:11.538Z,75
2016-08-13T06:50:12.105Z,75
2016-08-13T06:51:12.684Z,70
2016-08-13T06:52:13.233Z,55
2016-08-13T06:53:13.802Z,45
2016-08-13T06:54:14.456Z,50
2016-08-13T06:55:15.027Z,50
2016-08-13T06:56:15.576Z,45
2016-08-13T06:57:16.132Z,60
2016-08-13T06:58:16.706Z,55
2016-08-13T06:59:17.275Z,55
2016-08-13T07:00:17.852Z,65
2016-08-13T07:01:18.420Z,65
2016-08-13T07:02:19.002Z,55
2016-08-13T07:03:19.564Z,70
2016-08-13T07:04:20.126Z,75
2016-08-13T07:05:20.685Z,95
2016-08-13T07:06:21.252Z,115
2016-08-13T07:07:21.815Z,100
2016-08-13T07:08:22.375Z,130
2016-08-13T07:09:22.972Z,120
2016-08-13T07:10:23.544Z,70
2016-08-13T07:11:24.105Z,65
2016-08-13T07:12:24.682Z,80
2016-08-13T07:13:25.252Z,105
2016-08-13T07:14:25.838Z,120
2016-08-13T07:15:26.401Z,145
2016-08-13T07:16:26.959Z,115
2016-08-13T07:17:27.540Z,135
2016-08-13T07:18:28.112Z,120
2016-08-13T07:19:28.667Z,100
2016-08-13T07:20:29.225Z,100
2016-08-13T07:21:29.794Z,100
2016-08-13T07:22:30.348Z,100
2016-08-13T07:23:30.937Z,105
2016-08-13T07:24:31.499Z,130
2016-08-13T07:25:32.063Z,95
2016-08-13T07:26:32.627Z,110
2016-08-13T07:27:33.207Z,95
2016-08-13T07:28:33.780Z,100
2016-08-13T07:29:34.352Z,115
2016-08-13T07:30:34.943Z,105
2016-08-13T07:31:35.529Z,80
2016-08-13T07:32:36.101Z,65
2016-08-13T07:33:36.674Z,55
2016-08-13T07:34:37.253Z,170
2016-08-13T07:35:37.824Z,165
2016-08-13T07:36:38.392Z,125
2016-08-13T07:37:38.962Z,100
2016-08-13T07:38:39.529Z,110
2016-08-13T07:39:40.095Z,115
2016-08-13T07:40:40.660Z,105
2016-08-13T07:41:41.227Z,125
2016-08-13T07:42:41.806Z,150
2016-08-13T07:43:42.358Z,100
2016-08-13T07:44:42.942Z,115
2016-08-13T07:45:43.501Z,90
2016-08-13T07:46:44.077Z,85
2016-08-13T07:47:44.683Z,115
2016-08-13T07:48:45.327Z,115
2016-08-13T07:49:45.958Z,100
2016-08-13T07:50:46.581Z,105
2016-08-13T07:51:47.419Z,155
2016-08-13T07:52:48.062Z,105
2016-08-13T07:53:48.684Z,125
2016-08-13T07:54:49.302Z,110
2016-08-13T07:55:49.922Z,105
2016-08-13T07:56:50.545Z,115
2016-08-13T07:57:51.161Z,160
2016-08-13T07:58:51.784Z,155
2016-08-13T07:59:52.405Z,265
2016-08-13T08:00:53.016Z,215
2016-08-13T08:01:53.638Z,210
2016-08-13T08:02:54.273Z,190
2016-08-13T08:03:54.889Z,170
2016-08-13T08:04:55.513Z,245
2016-08-13T08:05:56.130Z,170
2016-08-13T08:06:56.756Z,255
2016-08-13T08:07:57.385Z,175
2016-08-13T08:08:57.994Z,195
2016-08-13T08:09:58.624Z,230
2016-08-13T08:10:59.261Z,325
2016-08-13T08:11:59.872Z,355
2016-08-13T08:13:00.506Z,250
2016-08-13T08:14:01.141Z,170
2016-08-13T08:15:01.821Z,230
2016-08-13T08:16:02.457Z,265
2016-08-13T08:17:03.069Z,330
2016-08-13T08:18:03.704Z,295
2016-08-13T08:19:04.323Z,275
2016-08-13T08:20:04.931Z,260
2016-08-13T08:21:05.550Z,255
2016-08-13T08:22:06.161Z,135
2016-08-13T08:23:06.792Z,110
2016-08-13T08:24:07.410Z,175
2016-08-13T08:25:08.040Z,175
2016-08-13T08:26:08.645Z,245
2016-08-13T08:27:09.342Z,215
2016-08-13T08:28:09.948Z,205
2016-08-13T08:29:10.565Z,210
2016-08-13T08:30:11.197Z,145
2016-08-13T08:31:11.810Z,175
2016-08-13T08:32:12.435Z,205
2016-08-13T08:33:13.058Z,205
2016-08-13T08:34:13.676Z,225
2016-08-13T08:35:14.298Z,245
2016-08-13T08:36:14.957Z,195
2016-08-13T08:37:15.616Z,190
2016-08-13T08:38:16.228Z,290
2016-08-13T08:39:16.857Z,300
2016-08-13T08:40:17.528Z,320
2016-08-13T08:41:18.162Z,215
2016-08-13T08:42:18.789Z,230
2016-08-13T08:43:19.441Z,265
2016-08-13T08:44:20.074Z,290
2016-08-13T08:45:20.730Z,290
2016-08-13T08:46:21.371Z,335
2016-08-13T08:47:21.994Z,325
2016-08-13T08:48:22.636Z,340
2016-08-13T08:49:23.272Z,330
2016-08-13T08:50:23.886Z,330
2016-08-13T08:51:24.527Z,340
2016-08-13T08:52:25.224Z,310
2016-08-13T08:53:25.841Z,300
2016-08-13T08:54:26.457Z,285
2016-08-13T08:55:27.095Z,300
2016-08-13T08:56:27.708Z,275
2016-08-13T08:57:28.315Z,205
2016-08-13T08:58:28.928Z,345
2016-08-13T08:59:29.545Z,340
2016-08-13T09:00:30.178Z,300
2016-08-13T09:01:30.803Z,300
2016-08-13T09:02:31.428Z,295
2016-08-13T09:03:32.044Z,285
2016-08-13T09:04:32.654Z,285
2016-08-13T09:05:33.271Z,305
2016-08-13T09:06:33.903Z,295
2016-08-13T09:07:34.505Z,225
2016-08-13T09:08:36.378Z,340
2016-08-13T09:09:37.040Z,330
2016-08-13T09:10:37.657Z,320
2016-08-13T09:11:38.301Z,330
2016-08-13T09:12:38.938Z,290
2016-08-13T09:13:39.630Z,340
2016-08-13T09:14:40.328Z,310
2016-08-13T09:15:40.936Z,315
2016-08-13T09:16:41.542Z,305
2016-08-13T09:17:42.204Z,395
2016-08-13T09:18:42.826Z,410
2016-08-13T09:19:43.441Z,225
2016-08-13T09:20:44.066Z,265
2016-08-13T09:21:44.685Z,295
2016-08-13T09:22:45.307Z,225
2016-08-13T09:23:45.916Z,245
2016-08-13T09:24:46.523Z,285
2016-08-13T09:25:47.149Z,120
2016-08-13T09:26:47.776Z,95
2016-08-13T09:27:48.381Z,170
2016-08-13T09:28:48.995Z,160
2016-08-13T09:29:49.548Z,175
2016-08-13T09:30:50.142Z,130
2016-08-13T09:32:45.772Z,125
2016-08-13T09:33:46.348Z,140
2016-08-13T09:36:35.203Z,175
2016-08-13T09:37:35.796Z,185
2016-08-13T09:38:36.383Z,170
2016-08-13T09:39:36.947Z,130
2016-08-13T09:40:37.535Z,105
2016-08-13T09:41:38.100Z,100
2016-08-13T09:42:38.666Z,120
2016-08-13T09:43:39.330Z,170
2016-08-13T09:44:39.961Z,140
2016-08-13T09:45:40.575Z,130
2016-08-13T09:46:41.145Z,130
2016-08-13T09:47:41.715Z,100
2016-08-13T09:48:42.284Z,80
2016-08-13T09:49:42.857Z,95
2016-08-13T09:50:43.419Z,105
2016-08-13T09:51:43.998Z,105
2016-08-13T09:52:44.583Z,140
2016-08-13T09:53:45.150Z,100
2016-08-13T09:54:45.713Z,110
2016-08-13T09:55:46.284Z,85
2016-08-13T09:56:46.848Z,60
2016-08-13T09:57:47.423Z,60
2016-08-13T09:58:47.986Z,85
2016-08-13T09:59:48.561Z,95
2016-08-13T10:00:49.127Z,125
2016-08-13T10:01:49.704Z,175
2016-08-13T10:02:50.270Z,225
2016-08-13T10:03:50.834Z,220
2016-08-13T10:04:51.398Z,250
2016-08-13T10:05:51.991Z,260
2016-08-13T10:06:52.570Z,275
2016-08-13T10:07:53.142Z,310
2016-08-13T10:08:53.764Z,275
2016-08-13T10:09:54.400Z,235
2016-08-13T10:10:55.017Z,270
2016-08-13T10:11:55.646Z,215
2016-08-13T10:12:56.263Z,120
2016-08-13T10:13:56.897Z,135
2016-08-13T10:14:57.514Z,155
2016-08-13T10:15:58.135Z,150
2016-08-13T10:16:58.758Z,140
2016-08-13T10:17:59.372Z,130
2016-08-13T10:18:59.999Z,155
2016-08-13T10:20:00.619Z,160
2016-08-13T10:21:01.234Z,270
2016-08-13T10:22:01.894Z,255
2016-08-13T10:23:02.524Z,265
2016-08-13T10:24:03.146Z,335
2016-08-13T10:25:03.757Z,330
2016-08-13T10:26:04.393Z,315
2016-08-13T10:27:05.025Z,315
2016-08-13T10:28:05.712Z,335
2016-08-13T10:29:06.330Z,325
2016-08-13T10:30:06.956Z,315
2016-08-13T10:31:07.593Z,275
2016-08-13T10:32:08.212Z,245
2016-08-13T10:33:08.830Z,235
2016-08-13T10:34:09.448Z,230
2016-08-13T10:35:10.069Z,135
2016-08-13T10:36:10.684Z,155
2016-08-13T10:37:11.333Z,210
2016-08-13T10:38:11.948Z,220
2016-08-13T10:39:12.575Z,270
2016-08-13T10:40:13.187Z,255
2016-08-13T10:41:13.800Z,255
2016-08-13T10:42:14.414Z,290
2016-08-13T10:43:15.063Z,295
2016-08-13T10:44:15.666Z,250
2016-08-13T10:45:16.283Z,195
2016-08-13T10:46:16.904Z,195
2016-08-13T10:47:17.522Z,5
2016-08-13T10:48:18.145Z,250
2016-08-13T10:49:18.767Z,220
2016-08-13T10:50:19.390Z,185
2016-08-13T10:51:20.013Z,225
2016-08-13T10:52:20.631Z,200
2016-08-13T10:53:21.258Z,185
2016-08-13T10:54:21.984Z,190
2016-08-13T10:55:22.655Z,190
2016-08-13T10:56:23.282Z,220
2016-08-13T10:57:23.900Z,350
2016-08-13T10:58:24.605Z,355
2016-08-13T10:59:25.247Z,395
2016-08-13T11:00:25.864Z,355
2016-08-13T11:01:26.468Z,330
2016-08-13T11:02:27.107Z,335
2016-08-13T11:03:27.722Z,300
2016-08-13T11:04:28.337Z,305
2016-08-13T11:05:28.960Z,300
2016-08-13T11:06:29.578Z,255
2016-08-13T11:07:30.189Z,205
2016-08-13T11:08:30.818Z,270
2016-08-13T11:09:31.493Z,300
2016-08-13T11:10:32.110Z,355
2016-08-13T11:11:32.723Z,310
2016-08-13T11:12:33.341Z,245
2016-08-13T11:13:33.963Z,295
2016-08-13T11:14:34.590Z,380
2016-08-13T11:15:35.240Z,445
2016-08-13T11:16:35.861Z,465
2016-08-13T11:17:36.500Z,460
2016-08-13T11:18:37.176Z,400
2016-08-13T11:19:37.815Z,325
2016-08-13T11:20:38.422Z,355
2016-08-13T11:21:39.057Z,325
2016-08-13T11:22:39.673Z,295
2016-08-13T11:23:40.334Z,325
2016-08-13T11:24:40.966Z,345
2016-08-13T11:25:41.569Z,415
2016-08-13T11:26:42.228Z,375
2016-08-13T11:27:42.838Z,370
2016-08-13T11:28:43.451Z,455
2016-08-13T11:29:44.080Z,405
2016-08-13T11:30:44.698Z,335
2016-08-13T11:31:45.319Z,310
2016-08-13T11:32:45.929Z,140
2016-08-13T11:33:46.544Z,90
2016-08-13T11:34:47.162Z,110
2016-08-13T11:35:47.792Z,140
2016-08-13T11:36:48.412Z,150
2016-08-13T11:37:49.026Z,185
2016-08-13T11:38:49.650Z,230
2016-08-13T11:39:50.276Z,340
2016-08-13T11:40:50.918Z,325
2016-08-13T11:41:51.528Z,245
2016-08-13T11:42:52.149Z,160
2016-08-13T11:43:52.764Z,170
2016-08-13T11:44:53.370Z,145
2016-08-13T11:45:53.999Z,115
2016-08-13T11:46:54.621Z,105
2016-08-13T11:47:55.236Z,95
2016-08-13T11:48:55.839Z,90
2016-08-13T11:49:56.475Z,90
2016-08-13T11:50:57.078Z,95
2016-08-13T11:51:57.683Z,125
2016-08-13T11:52:58.295Z,205
2016-08-13T11:53:58.917Z,330
2016-08-13T11:54:59.530Z,375
2016-08-13T11:56:00.159Z,400
2016-08-13T11:57:00.792Z,385
2016-08-13T11:58:01.417Z,350
2016-08-13T11:59:02.029Z,355
2016-08-13T12:00:02.648Z,380
2016-08-13T12:01:03.270Z,385
2016-08-13T12:02:03.892Z,285
2016-08-13T12:03:04.502Z,215
2016-08-13T12:04:05.126Z,295
2016-08-13T12:05:05.755Z,330
2016-08-13T12:06:06.376Z,315
2016-08-13T12:07:07.000Z,285
2016-08-13T12:08:07.609Z,295
2016-08-13T12:09:08.273Z,320
2016-08-13T12:10:08.893Z,345
2016-08-13T12:11:09.507Z,360
2016-08-13T12:12:10.125Z,345
2016-08-13T12:13:10.742Z,350
2016-08-13T12:14:11.353Z,390
2016-08-13T12:15:11.983Z,300
2016-08-13T12:16:12.585Z,395
2016-08-13T12:17:13.283Z,340
2016-08-13T12:18:13.909Z,380
2016-08-13T12:19:14.525Z,425
2016-08-13T12:20:15.145Z,395
2016-08-13T12:21:15.774Z,330
2016-08-13T12:22:16.395Z,350
2016-08-13T12:23:17.064Z,325
2016-08-13T12:24:17.686Z,260
2016-08-13T12:25:18.301Z,225
2016-08-13T12:26:18.921Z,225
2016-08-13T12:27:19.548Z,185
2016-08-13T12:28:20.204Z,160
2016-08-13T12:29:20.840Z,140
2016-08-13T12:30:21.480Z,135
2016-08-13T12:31:22.100Z,125
2016-08-13T12:32:22.725Z,115
2016-08-13T12:33:23.349Z,130
2016-08-13T12:34:23.976Z,105
2016-08-13T12:35:24.609Z,95
2016-08-13T12:36:25.225Z,80
2016-08-13T12:37:25.841Z,65
2016-08-13T12:38:26.466Z,80
2016-08-13T12:39:27.092Z,100
2016-08-13T12:40:27.724Z,110
2016-08-13T12:41:28.343Z,125
2016-08-13T12:42:28.968Z,135
2016-08-13T12:43:29.588Z,120
2016-08-13T12:44:30.193Z,125
2016-08-13T12:45:30.839Z,120
2016-08-13T12:46:31.456Z,130
2016-08-13T12:47:32.095Z,130
2016-08-13T12:48:32.727Z,145
2016-08-13T12:49:33.349Z,160
2016-08-13T12:50:33.965Z,160
2016-08-13T12:51:34.597Z,175
2016-08-13T12:52:35.203Z,170
2016-08-13T12:53:35.836Z,170
2016-08-13T12:54:36.446Z,175
2016-08-13T12:55:37.076Z,170
2016-08-13T12:56:37.703Z,175
2016-08-13T12:57:38.329Z,175
2016-08-13T12:58:38.955Z,175
2016-08-13T12:59:39.569Z,175
2016-08-13T13:00:40.188Z,195
2016-08-13T13:01:40.822Z,195
2016-08-13T13:02:41.454Z,190
2016-08-13T13:03:42.082Z,185
2016-08-13T13:04:42.714Z,170
2016-08-13T13:05:43.334Z,175
2016-08-13T13:06:43.948Z,170
2016-08-13T13:07:44.571Z,160
2016-08-13T13:08:45.197Z,150
2016-08-13T13:09:45.811Z,145
2016-08-13T13:10:46.437Z,140
2016-08-13T13:11:47.063Z,140
2016-08-13T13:12:47.686Z,135
2016-08-13T13:13:48.297Z,125
2016-08-13T13:14:48.916Z,130
2016-08-13T13:15:49.533Z,125
2016-08-13T13:16:50.169Z,135
2016-08-13T13:17:50.793Z,130
2016-08-13T13:18:51.409Z,120
2016-08-13T13:19:52.052Z,120
2016-08-13T13:20:52.699Z,130
2016-08-13T13:21:53.310Z,125
2016-08-13T13:22:53.932Z,120
2016-08-13T13:23:54.560Z,125
2016-08-13T13:24:55.182Z,125
2016-08-13T13:25:55.802Z,135
2016-08-13T13:26:56.423Z,105
2016-08-13T13:27:57.040Z,110
2016-08-13T13:28:57.661Z,145
2016-08-13T13:29:58.279Z,160
2016-08-13T13:30:58.898Z,205
2016-08-13T13:31:59.529Z,240
2016-08-13T13:33:00.142Z,290
2016-08-13T13:34:00.772Z,305
2016-08-13T13:35:01.393Z,300
2016-08-13T13:36:02.013Z,280
2016-08-13T13:37:02.634Z,275
2016-08-13T13:38:03.256Z,290
2016-08-13T13:39:03.876Z,255
2016-08-13T13:40:04.493Z,235
2016-08-13T13:41:05.114Z,155
2016-08-13T13:42:05.737Z,135
2016-08-13T13:43:06.355Z,130
2016-08-13T13:44:06.988Z,140
2016-08-13T13:45:07.610Z,130
2016-08-13T13:46:08.225Z,120
2016-08-13T13:47:08.840Z,115
2016-08-13T13:48:09.465Z,120
2016-08-13T13:49:10.088Z,120
2016-08-13T13:50:10.707Z,100
2016-08-13T13:51:11.337Z,105
2016-08-13T13:52:11.951Z,110
2016-08-13T13:53:12.572Z,120
2016-08-13T13:54:13.187Z,135
2016-08-13T13:55:13.814Z,150
2016-08-13T13:56:14.432Z,150
2016-08-13T13:57:15.066Z,155
2016-08-13T13:58:15.695Z,155
2016-08-13T13:59:16.312Z,140
2016-08-13T14:00:16.939Z,145
2016-08-13T14:01:17.551Z,155
2016-08-13T14:02:18.181Z,155
2016-08-13T14:03:18.804Z,150
2016-08-13T14:04:19.440Z,155
2016-08-13T14:05:20.063Z,140
2016-08-13T14:06:20.691Z,130
2016-08-13T14:07:21.348Z,125
2016-08-13T14:08:21.982Z,115
2016-08-13T14:09:22.599Z,95
2016-08-13T14:10:23.219Z,90
2016-08-13T14:11:23.843Z,80
2016-08-13T14:12:24.466Z,95
2016-08-13T14:13:25.078Z,95
2016-08-13T14:14:25.699Z,80
2016-08-13T14:15:26.333Z,85
2016-08-13T14:16:26.959Z,95
2016-08-13T14:17:27.589Z,75
2016-08-13T14:18:28.211Z,65
2016-08-13T14:19:28.835Z,60
2016-08-13T14:20:29.446Z,60